Nearby METAR Reports

 

KMEV - Minden, Nevada, USA
Distance from station: N 3mi, 5km
Updated: Mon, 15-Oct-2018 4:35pm PDT
Clear
Clear
 Wind from NNW
Wind: NNW 12 mph , 19 km/h, Gust: 21 mph , 33 km/h
Temperature: 57°F , 14°C
Dew Point: 5°F , -15°C
Humidity: 12%
Barometer: 30.31 inHg , 1026.4 hPa
Clouds: Clear
Visibility: 10 miles , 16 km
2018/10/15 23:35 KMEV 152335Z AUTO 34010G18KT 10SM CLR 14/M15 A3031 RMK AO2
KCXP - Carson City, Nevada, USA
Distance from station: N 10mi, 16km
Updated: Mon, 15-Oct-2018 4:55pm PDT
Clear
Clear
 Wind from ENE
Wind: ENE 18 mph , 30 km/h, Gust: 24 mph , 39 km/h
Temperature: 57°F , 14°C
Dew Point: -2°F , -19°C
Humidity: 9%
Barometer: 30.33 inHg , 1027.1 hPa
Clouds: Clear
Visibility: 10 miles , 16 km
2018/10/15 23:55 KCXP 152355Z AUTO 07016G21KT 10SM CLR 14/M19 A3033 RMK AO2
 
KTVL - South Lake Tahoe, California, USA
Distance from station: WSW 18mi, 29km
Updated: Mon, 15-Oct-2018 4:53pm PDT
Clear
Clear
 Wind from NE
Wind: NE 10 mph , 17 km/h, Gust: 17 mph , 28 km/h
Temperature: 55°F , 13°C
Dew Point: -6°F , -21°C
Humidity: 8%
Barometer: 30.31 inHg , 1026.4 hPa
Clouds: Clear
Visibility: 10 miles , 16 km
2018/10/15 23:53 KTVL 152353Z AUTO 04009G15KT 10SM CLR 13/M21 A3031 RMK AO2 SLP247 T01331211 10156 20078 56007
KTRK - Truckee Tahoe, California, USA
Distance from station: NW 29mi, 46km
Updated: Mon, 15-Oct-2018 4:45pm PDT
Clear
Clear
 Wind from NNE
Wind: NNE 7 mph , 11 km/h
Temperature: 57°F , 14°C
Dew Point: 5°F , -15°C
Humidity: 12%
Barometer: 30.34 inHg , 1027.4 hPa
Clouds: Clear
Visibility: 10 miles , 16 km
2018/10/15 23:45 KTRK 152345Z 03006KT 10SM SKC 14/M15 A3034
 
KRNO - Reno, Nevada, USA
Distance from station: N 31mi, 50km
Updated: Mon, 15-Oct-2018 4:55pm PDT
Clear
Clear
 Wind from E
Wind: E 10 mph , 17 km/h
Temperature: 61°F , 16°C
Dew Point: 7°F , -14°C
Humidity: 11%
Barometer: 30.33 inHg , 1027.1 hPa
Clouds: Clear
Visibility: 10 miles , 16 km
2018/10/15 23:55 KRNO 152355Z 08009KT 10SM CLR 16/M14 A3033 RMK AO2 SLP260 T01561139 10167 20100 56007 $
KRTS - Reno/Stead, Nevada, USA
Distance from station: NNW 44mi, 71km
Updated: Mon, 15-Oct-2018 4:35pm PDT
Clear
Clear
 Wind from ESE
Wind: ESE 8 mph , 13 km/h
Temperature: 55°F , 13°C
Dew Point: 1°F , -17°C
Humidity: 11%
Barometer: 30.35 inHg , 1027.8 hPa
Clouds: Clear
Visibility: 10 miles , 16 km
2018/10/15 23:35 KRTS 152335Z AUTO 11007KT 10SM CLR 13/M17 A3035 RMK AO2
 
KBLU - Emigrant Gap, California, USA
Distance from station: WNW 55mi, 89km
Updated: Mon, 15-Oct-2018 4:52pm PDT
Clear
Clear
 Wind from varies
Wind: varies 6 mph , 9 km/h
Temperature: 64°F , 18°C
Dew Point: -2°F , -19°C
Humidity: 7%
Barometer: 30.28 inHg , 1025.4 hPa
Clouds: Clear
Visibility: 10 miles , 16 km
2018/10/15 23:52 KBLU 152352Z AUTO VRB05KT 10SM CLR 18/M19 A3028 RMK AO2 SLP203 T01831189 10194 20150 56004
KPVF - Placerville, California, USA
Distance from station: WSW 60mi, 96km
Updated: Mon, 15-Oct-2018 4:35pm PDT
Clear
Clear
 Wind from W
Wind: W 8 mph , 13 km/h
Temperature: 72°F , 22°C
Dew Point: 16°F , -9°C
Humidity: 12%
Barometer: 30.16 inHg , 1021.3 hPa
Clouds: Clear
Visibility: 10 miles , 16 km
2018/10/15 23:35 KPVF 152335Z AUTO 28007KT 10SM CLR 22/M09 A3016 RMK AO1
 
KNFL - Fallon Nas, Nevada, USA
Distance from station: ENE 61mi, 97km
Updated: Mon, 15-Oct-2018 4:56pm PDT
Clear
Clear
 Wind from NNE
Wind: NNE 8 mph , 13 km/h
Temperature: 57°F , 14°C
Dew Point: 12°F , -11°C
Humidity: 17%
Barometer: 30.34 inHg , 1027.4 hPa
Clouds: Clear
Visibility: 10 miles , 16 km
2018/10/15 23:56 KNFL 152356Z 03007KT 10SM CLR 14/M11 A3034 RMK AO2 SLP232 T01441106 10150 20067 56014
KGOO - Grass Valley, California, USA
Distance from station: W 70mi, 112km
Updated: Mon, 15-Oct-2018 4:40pm PDT
Clear
Clear
 Wind from WNW
Wind: WNW 7 mph , 11 km/h
Temperature: 72°F , 22°C
Dew Point: 18°F , -8°C
Humidity: 13%
Barometer: 30.17 inHg , 1021.7 hPa
Clouds: Clear
Visibility: 10 miles , 16 km
2018/10/15 23:40 KGOO 152340Z AUTO 30006KT 10SM CLR 22/M08 A3017 RMK AO1
 
KAUN - Auburn Muni, California, USA
Distance from station: W 73mi, 118km
Updated: Mon, 15-Oct-2018 4:55pm PDT
Clear
Clear
 Wind from WNW
Wind: WNW 9 mph , 15 km/h
Temperature: 75°F , 24°C
Dew Point: 19°F , -7°C
Humidity: 12%
Barometer: 30.11 inHg , 1019.6 hPa
Clouds: Clear
Visibility: 10 miles , 16 km
2018/10/15 23:55 KAUN 152355Z AUTO 29008KT 10SM CLR 24/M07 A3011 RMK A01
KO22 - Columbia, California, USA
Distance from station: SSW 79mi, 127km
Updated: Fri, 07-Sep-2018 4:55pm PDT
NOT Current
Clear
Clear
 Wind from SW
Wind: SW 3 mph , 6 km/h
Temperature: 95°F , 35°C
Dew Point: 34°F , 1°C
Humidity: 11%
Barometer: 30.05 inHg , 1017.6 hPa
Clouds: Clear
Visibility: 10 miles , 16 km
2018/09/07 23:55 KO22 072355Z AUTO 23003KT 10SM CLR 35/01 A3005 RMK A01
 
KLHM - Lincoln, California, USA
Distance from station: W 88mi, 141km
Updated: Mon, 15-Oct-2018 4:55pm PDT
Clear
Clear
 Wind from NW
Wind: NW 8 mph , 13 km/h
Temperature: 81°F , 27°C
Dew Point: 19°F , -7°C
Humidity: 10%
Barometer: 30.06 inHg , 1017.9 hPa
Clouds: Clear
Visibility: 10 miles , 16 km
2018/10/15 23:55 KLHM 152355Z AUTO 32007KT 10SM CLR 27/M07 A3006 RMK AO1
KBAB - Beale Afb/Marysv, California, USA
Distance from station: W 91mi, 147km
Updated: Mon, 15-Oct-2018 3:58pm PDT
Clear
Clear
 Wind from NW
Wind: NW 13 mph , 20 km/h, Gust: 18 mph , 30 km/h
Temperature: 81°F , 27°C
Dew Point: 19°F , -7°C
Humidity: 10%
Barometer: 30.06 inHg , 1017.9 hPa
Clouds: Clear
Visibility: 10 miles , 16 km
2018/10/15 22:58 KBAB 152258Z AUTO 31011G16KT 10SM CLR 27/M07 A3006 RMK AO2 SLP182 T02741069 $
 
KMHR - Mather Field, California, USA
Distance from station: WSW 91mi, 147km
Updated: Mon, 15-Oct-2018 3:45pm PDT

 
Visibility: 1 mile , 2 km
2018/10/15 22:45 KMHR 152245Z 2245KT 10SM SKC 27/M11 A3007
KLOL - Lovelock, Nevada, USA
Distance from station: NE 94mi, 151km
Updated: Mon, 15-Oct-2018 4:53pm PDT
Clear
Clear
 Wind from calm
Wind: Calm
Temperature: 57°F , 14°C
Dew Point: 12°F , -11°C
Humidity: 17%
Barometer: 30.34 inHg , 1027.4 hPa
Clouds: Clear
Visibility: 10 miles , 16 km
2018/10/15 23:53 KLOL 152353Z AUTO 00000KT 10SM CLR 14/M11 A3034 RMK AO2 SLP281 T01441111 10150 20083 56017
 
KMCC - Mcclellan Afb, California, USA
Distance from station: WSW 94mi, 151km
Updated: Mon, 15-Oct-2018 4:35pm PDT
Clear
Clear
 Wind from NW
Wind: NW 12 mph , 19 km/h
Temperature: 81°F , 27°C
Dew Point: 10°F , -12°C
Humidity: 7%
Barometer: 30.08 inHg , 1018.6 hPa
Clouds: Clear
Visibility: 10 miles , 16 km
2018/10/15 23:35 KMCC 152335Z AUTO 31010KT 10SM CLR 27/M12 A3008 RMK AO2
KMYV - Marysville, California, USA
Distance from station: W 99mi, 159km
Updated: Mon, 15-Oct-2018 4:53pm PDT
Clear
Clear
 Wind from NNW
Wind: NNW 13 mph , 20 km/h
Temperature: 82°F , 28°C
Dew Point: 19°F , -7°C
Humidity: 9%
Barometer: 30.06 inHg , 1017.9 hPa
Clouds: Clear
Visibility: 10 miles , 16 km
2018/10/15 23:53 KMYV 152353Z AUTO 33011KT 10SM CLR 28/M07 A3006 RMK AO2 SLP183 T02781072 10283 20217 56017
Honor Flight NV - Honoring all of our Veterans CoCoRaHS (Community Collaborative Rain, Hail and Snow Network) Station Number: NV-DG-2 Live Lightning Map - USA Reno Skywarn Spotter ID: DO21 AlertID Southwestern Weather Network Carson Valley Community Food Closet - providing for the needs of our community